createdAt,value
2019-02-27T00:01:54.487Z,41.00
2019-02-27T00:04:23.383Z,39.40
2019-02-27T00:06:52.172Z,39.87
2019-02-27T00:09:21.203Z,38.00
2019-02-27T00:11:50.069Z,40.10
2019-02-27T00:14:18.907Z,39.03
2019-02-27T00:16:47.691Z,41.73
2019-02-27T00:19:16.523Z,40.77
2019-02-27T00:21:45.327Z,38.90
2019-02-27T00:24:14.123Z,39.40
2019-02-27T00:26:43.112Z,38.70
2019-02-27T00:29:12.322Z,38.07
2019-02-27T00:31:45.254Z,39.10
2019-02-27T00:34:11.981Z,39.53
2019-02-27T00:36:44.868Z,35.30
2019-02-27T00:39:11.805Z,37.40
2019-02-27T00:41:45.714Z,37.97
2019-02-27T00:44:13.537Z,38.70
2019-02-27T00:46:44.004Z,35.93
2019-02-27T00:49:13.191Z,37.50
2019-02-27T00:51:44.712Z,41.30
2019-02-27T00:54:12.746Z,39.47
2019-02-27T00:56:44.852Z,37.20
2019-02-27T00:59:12.681Z,39.27
2019-02-27T01:01:41.548Z,38.67
2019-02-27T01:04:10.462Z,39.47
2019-02-27T01:06:39.352Z,38.60
2019-02-27T01:09:08.783Z,36.10
2019-02-27T01:11:37.629Z,39.10
2019-02-27T01:14:06.401Z,36.90
2019-02-27T01:16:35.281Z,37.60
2019-02-27T01:19:04.742Z,37.10
2019-02-27T01:21:34.090Z,34.90
2019-02-27T01:24:02.920Z,35.77
2019-02-27T01:26:31.703Z,37.93
2019-02-27T01:29:00.469Z,35.37
2019-02-27T01:31:29.331Z,35.30
2019-02-27T01:33:58.148Z,38.10
2019-02-27T01:36:26.961Z,36.87
2019-02-27T01:38:55.790Z,36.67
2019-02-27T01:41:25.174Z,36.07
2019-02-27T01:43:54.283Z,36.67
2019-02-27T01:46:27.353Z,35.70
2019-02-27T01:48:53.537Z,35.83
2019-02-27T01:51:22.357Z,35.90
2019-02-27T01:53:51.196Z,35.70
2019-02-27T01:56:20.083Z,33.20
2019-02-27T01:58:48.867Z,35.30
2019-02-27T02:01:17.631Z,36.40
2019-02-27T02:03:47.564Z,36.30
2019-02-27T02:06:17.013Z,35.00
2019-02-27T02:08:48.258Z,37.50
2019-02-27T02:11:17.603Z,38.30
2019-02-27T02:13:59.635Z,34.87
2019-02-27T02:17:20.493Z,34.10
2019-02-27T02:20:19.503Z,33.00
2019-02-27T02:23:05.886Z,36.33
2019-02-27T02:25:50.126Z,33.20
2019-02-27T02:29:01.860Z,35.50
2019-02-27T02:31:47.249Z,34.67
2019-02-27T02:34:44.125Z,34.93
2019-02-27T02:37:53.404Z,35.13
2019-02-27T02:41:18.503Z,35.90
2019-02-27T02:44:32.576Z,38.33
2019-02-27T02:47:42.926Z,39.10
2019-02-27T02:50:34.932Z,41.97
2019-02-27T02:53:28.753Z,44.67
2019-02-27T02:56:08.597Z,40.50
2019-02-27T02:59:14.291Z,38.80
2019-02-27T03:01:51.564Z,38.50
2019-02-27T03:05:00.545Z,38.57
2019-02-27T03:07:50.291Z,36.17
2019-02-27T03:10:27.512Z,34.03
2019-02-27T03:13:48.136Z,32.97
2019-02-27T03:16:31.754Z,35.17
2019-02-27T03:19:30.569Z,34.33
2019-02-27T03:22:43.391Z,35.40
2019-02-27T03:25:40.298Z,33.60
2019-02-27T03:28:25.061Z,36.37
2019-02-27T03:31:34.986Z,35.47
2019-02-27T03:34:12.937Z,36.60
2019-02-27T03:37:03.645Z,36.30
2019-02-27T03:39:57.649Z,35.03
2019-02-27T03:42:37.217Z,33.70
2019-02-27T03:45:31.096Z,35.30
2019-02-27T03:48:37.997Z,32.70
2019-02-27T03:51:17.461Z,33.37
2019-02-27T03:54:20.842Z,34.80
2019-02-27T03:57:10.204Z,35.30
2019-02-27T04:00:03.258Z,36.63
2019-02-27T04:03:00.030Z,35.80
2019-02-27T04:06:13.213Z,35.10
2019-02-27T04:09:01.141Z,33.50
2019-02-27T04:11:30.351Z,34.10
2019-02-27T04:14:03.917Z,34.80
2019-02-27T04:16:31.280Z,37.10
2019-02-27T04:19:04.447Z,36.43
2019-02-27T04:21:30.907Z,38.47
2019-02-27T04:23:59.784Z,35.50
2019-02-27T04:26:28.585Z,35.30
2019-02-27T04:28:57.440Z,37.53
2019-02-27T04:31:29.608Z,36.00
2019-02-27T04:33:59.560Z,33.67
2019-02-27T04:36:27.214Z,34.77
2019-02-27T04:38:55.994Z,32.90
2019-02-27T04:41:24.785Z,33.73
2019-02-27T04:43:53.636Z,33.90
2019-02-27T04:46:22.443Z,38.00
2019-02-27T04:48:51.250Z,34.77
2019-02-27T04:51:20.026Z,36.13
2019-02-27T04:53:48.817Z,34.43
2019-02-27T04:56:17.614Z,33.38
2019-02-27T04:58:46.379Z,34.90
2019-02-27T05:01:15.138Z,33.83
2019-02-27T05:03:43.940Z,34.20
2019-02-27T05:06:14.471Z,32.77
2019-02-27T05:08:43.662Z,36.20
2019-02-27T05:11:14.958Z,34.27
2019-02-27T05:13:43.742Z,32.35
2019-02-27T05:16:14.107Z,33.20
2019-02-27T05:18:43.184Z,33.97
2019-02-27T05:21:12.052Z,33.03
2019-02-27T05:23:40.934Z,35.92
2019-02-27T05:26:10.143Z,33.83
2019-02-27T05:28:39.050Z,30.75
2019-02-27T05:31:07.824Z,31.87
2019-02-27T05:33:39.709Z,33.13
2019-02-27T05:36:07.364Z,31.47
2019-02-27T05:38:36.244Z,34.05
2019-02-27T05:41:05.089Z,33.35
2019-02-27T05:43:33.850Z,33.47
2019-02-27T05:46:03.217Z,33.55
2019-02-27T05:48:32.578Z,31.37
2019-02-27T05:51:01.350Z,32.48
2019-02-27T05:53:30.114Z,29.30
2019-02-27T05:55:58.884Z,29.63
2019-02-27T05:58:27.702Z,28.85
2019-02-27T06:00:56.559Z,29.20
2019-02-27T06:03:25.346Z,28.70
2019-02-27T06:05:54.107Z,26.07
2019-02-27T06:08:22.877Z,27.40
2019-02-27T06:10:55.167Z,25.17
2019-02-27T06:13:22.336Z,26.07
2019-02-27T06:15:51.322Z,26.27
2019-02-27T06:18:22.815Z,24.17
2019-02-27T06:20:50.753Z,24.83
2019-02-27T06:23:19.503Z,23.87
2019-02-27T06:25:48.310Z,23.90
2019-02-27T06:28:18.693Z,24.50
2019-02-27T06:30:47.749Z,24.53
2019-02-27T06:33:16.598Z,24.53
2019-02-27T06:35:49.392Z,22.53
2019-02-27T06:38:18.674Z,21.50
2019-02-27T06:40:50.712Z,24.17
2019-02-27T06:43:29.399Z,22.33
2019-02-27T06:45:58.192Z,22.87
2019-02-27T06:48:26.974Z,23.63
2019-02-27T06:50:58.225Z,25.23
2019-02-27T06:53:26.262Z,26.03
2019-02-27T06:55:55.039Z,23.90
2019-02-27T06:58:23.918Z,24.57
2019-02-27T07:00:52.912Z,25.07
2019-02-27T07:03:21.754Z,25.60
2019-02-27T07:05:50.548Z,24.50
2019-02-27T07:08:19.404Z,24.17
2019-02-27T07:10:48.286Z,23.23
2019-02-27T07:13:17.157Z,22.87
2019-02-27T07:15:48.267Z,25.37
2019-02-27T07:18:16.643Z,23.33
2019-02-27T07:20:45.486Z,21.23
2019-02-27T07:23:14.389Z,22.90
2019-02-27T07:25:43.268Z,23.60
2019-02-27T07:28:12.085Z,24.90
2019-02-27T07:30:42.624Z,25.60
2019-02-27T07:33:11.404Z,21.53
2019-02-27T07:35:40.158Z,22.43
2019-02-27T07:38:08.941Z,22.37
2019-02-27T07:40:37.775Z,22.27
2019-02-27T07:43:06.807Z,24.67
2019-02-27T07:45:35.572Z,23.50
2019-02-27T07:48:04.396Z,22.13
2019-02-27T07:50:33.298Z,20.50
2019-02-27T07:53:02.089Z,24.77
2019-02-27T07:55:30.869Z,22.47
2019-02-27T07:57:59.649Z,24.20
2019-02-27T08:00:28.489Z,22.20
2019-02-27T08:02:57.247Z,23.10
2019-02-27T08:05:29.024Z,20.60
2019-02-27T08:07:56.650Z,22.53
2019-02-27T08:10:25.552Z,21.60
2019-02-27T08:12:56.448Z,22.20
2019-02-27T08:15:25.547Z,20.10
2019-02-27T08:17:57.547Z,21.57
2019-02-27T08:20:25.128Z,21.03
2019-02-27T08:22:54.070Z,20.60
2019-02-27T08:25:22.985Z,19.97
2019-02-27T08:27:51.764Z,22.60
2019-02-27T08:30:21.257Z,22.87
2019-02-27T08:32:50.201Z,21.67
2019-02-27T08:35:19.121Z,20.07
2019-02-27T08:37:47.998Z,20.37
2019-02-27T08:40:17.061Z,21.37
2019-02-27T08:42:45.869Z,20.77
2019-02-27T08:45:19.720Z,19.17
2019-02-27T08:47:45.414Z,18.27
2019-02-27T08:50:15.174Z,20.90
2019-02-27T08:52:44.617Z,17.57
2019-02-27T08:55:19.791Z,20.50
2019-02-27T08:57:44.882Z,20.77
2019-02-27T09:00:16.824Z,20.10
2019-02-27T09:02:45.644Z,19.43
2019-02-27T09:05:19.797Z,22.10
2019-02-27T09:07:45.202Z,20.13
2019-02-27T09:10:14.689Z,19.47
2019-02-27T09:12:45.348Z,20.97
2019-02-27T09:15:14.491Z,20.50
2019-02-27T09:17:43.332Z,20.50
2019-02-27T09:20:13.087Z,21.27
2019-02-27T09:22:42.064Z,21.00
2019-02-27T09:25:11.055Z,19.80
2019-02-27T09:27:39.884Z,19.80
2019-02-27T09:30:10.289Z,20.63
2019-02-27T09:32:39.126Z,20.53
2019-02-27T09:35:08.525Z,18.57
2019-02-27T09:37:39.357Z,20.80
2019-02-27T09:40:09.650Z,19.77
2019-02-27T09:42:38.517Z,19.07
2019-02-27T09:45:20.526Z,18.80
2019-02-27T09:47:49.422Z,18.37
2019-02-27T09:50:48.430Z,18.03
2019-02-27T09:53:17.318Z,17.30
2019-02-27T09:55:46.337Z,18.73
2019-02-27T09:58:15.150Z,16.53
2019-02-27T10:00:59.337Z,16.70
2019-02-27T10:03:26.050Z,17.70
2019-02-27T10:05:55.003Z,15.87
2019-02-27T10:08:25.396Z,17.23
2019-02-27T10:10:54.553Z,17.40
2019-02-27T10:13:23.324Z,17.43
2019-02-27T10:15:52.208Z,17.30
2019-02-27T10:18:22.046Z,16.63
2019-02-27T10:20:51.256Z,17.90
2019-02-27T10:23:20.089Z,17.63
2019-02-27T10:25:49.958Z,16.40
2019-02-27T10:28:18.869Z,14.93
2019-02-27T10:30:50.093Z,16.40
2019-02-27T10:33:18.257Z,15.00
2019-02-27T10:35:47.664Z,16.43
2019-02-27T10:38:16.563Z,13.67
2019-02-27T10:41:49.898Z,14.17
2019-02-27T10:44:16.721Z,14.20
2019-02-27T10:46:47.235Z,13.50
2019-02-27T10:49:16.086Z,14.80
2019-02-27T10:51:44.891Z,13.70
2019-02-27T10:54:13.683Z,14.70
2019-02-27T10:56:42.517Z,13.37
2019-02-27T10:59:11.335Z,14.30
2019-02-27T11:01:40.109Z,13.43
2019-02-27T11:04:08.940Z,13.67
2019-02-27T11:06:38.393Z,14.50
2019-02-27T11:09:22.153Z,15.17
2019-02-27T11:11:53.743Z,14.73
2019-02-27T11:14:21.554Z,13.80
2019-02-27T11:16:50.333Z,14.70
2019-02-27T11:19:19.101Z,13.63
2019-02-27T11:21:47.881Z,11.20
2019-02-27T11:24:17.299Z,11.83
2019-02-27T11:26:46.261Z,10.50
2019-02-27T11:29:15.081Z,11.17
2019-02-27T11:31:45.546Z,11.87
2019-02-27T11:34:16.077Z,11.40
2019-02-27T11:36:45.091Z,10.87
2019-02-27T11:39:13.990Z,11.27
2019-02-27T11:41:42.936Z,10.00
2019-02-27T11:44:14.056Z,10.43
2019-02-27T11:46:42.268Z,10.77
2019-02-27T11:49:11.125Z,10.03
2019-02-27T11:51:40.053Z,10.80
2019-02-27T11:54:09.207Z,10.70
2019-02-27T11:56:40.126Z,9.00
2019-02-27T11:59:10.277Z,10.37
2019-02-27T12:01:39.879Z,10.40
2019-02-27T12:04:08.709Z,10.50
2019-02-27T12:06:41.296Z,10.03
2019-02-27T12:09:08.513Z,12.17
2019-02-27T12:11:37.318Z,11.13
2019-02-27T12:14:06.559Z,10.47
2019-02-27T12:16:36.675Z,9.30
2019-02-27T12:19:06.387Z,9.77
2019-02-27T12:21:36.124Z,9.20
2019-02-27T12:24:06.519Z,9.17
2019-02-27T12:26:37.514Z,10.63
2019-02-27T12:29:07.345Z,9.40
2019-02-27T12:31:36.208Z,7.53
2019-02-27T12:34:05.189Z,9.10
2019-02-27T12:36:33.968Z,8.23
2019-02-27T12:39:02.924Z,8.70
2019-02-27T12:41:32.520Z,9.37
2019-02-27T12:44:02.090Z,8.50
2019-02-27T12:46:31.903Z,9.10
2019-02-27T12:49:01.550Z,8.83
2019-02-27T12:51:30.340Z,9.50
2019-02-27T12:53:59.298Z,10.07
2019-02-27T12:56:28.455Z,9.60
2019-02-27T12:58:58.769Z,9.50
2019-02-27T13:01:27.843Z,10.33
2019-02-27T13:03:56.910Z,9.17
2019-02-27T13:06:25.836Z,8.03
2019-02-27T13:08:55.895Z,10.27
2019-02-27T13:11:24.730Z,10.80
2019-02-27T13:13:53.466Z,9.17
2019-02-27T13:16:22.357Z,11.60
2019-02-27T13:18:51.231Z,10.67
2019-02-27T13:21:20.592Z,11.50
2019-02-27T13:23:50.040Z,10.83
2019-02-27T13:26:18.914Z,10.33
2019-02-27T13:28:48.815Z,10.80
2019-02-27T13:31:18.416Z,9.53
2019-02-27T13:33:47.234Z,7.60
2019-02-27T13:36:16.444Z,8.57
2019-02-27T13:38:45.417Z,9.90
2019-02-27T13:41:14.233Z,9.17
2019-02-27T13:43:43.158Z,8.90
2019-02-27T13:46:12.053Z,9.70
2019-02-27T13:48:40.954Z,9.40
2019-02-27T13:51:09.872Z,10.77
2019-02-27T13:53:38.852Z,5.93
2019-02-27T13:56:07.916Z,4.70
2019-02-27T13:58:36.747Z,5.03
2019-02-27T14:01:06.889Z,6.83
2019-02-27T14:03:35.972Z,7.33
2019-02-27T14:06:06.313Z,7.20
2019-02-27T14:08:35.588Z,6.40
2019-02-27T14:11:04.642Z,6.80
2019-02-27T14:13:33.538Z,7.10
2019-02-27T14:16:09.072Z,7.37
2019-02-27T14:18:37.863Z,8.10
2019-02-27T14:21:06.768Z,7.40
2019-02-27T14:23:35.597Z,8.77
2019-02-27T14:26:06.733Z,7.10
2019-02-27T14:28:35.154Z,7.70
2019-02-27T14:31:04.198Z,7.27
2019-02-27T14:33:33.138Z,7.00
2019-02-27T14:36:02.064Z,7.33
2019-02-27T14:38:31.001Z,7.87
2019-02-27T14:40:59.811Z,6.93
2019-02-27T14:43:28.644Z,6.50
2019-02-27T14:45:57.852Z,6.60
2019-02-27T14:48:26.702Z,6.40
2019-02-27T14:50:55.638Z,6.30
2019-02-27T14:53:24.582Z,5.83
2019-02-27T14:55:53.518Z,6.13
2019-02-27T14:58:24.281Z,5.90
2019-02-27T15:00:52.821Z,5.57
2019-02-27T15:03:21.687Z,5.50
2019-02-27T15:05:50.448Z,6.43
2019-02-27T15:08:19.198Z,5.80
2019-02-27T15:10:47.983Z,6.90
2019-02-27T15:13:16.774Z,6.00
2019-02-27T15:15:45.560Z,6.40
2019-02-27T15:18:14.347Z,6.90
2019-02-27T15:20:43.210Z,6.07
2019-02-27T15:23:11.985Z,6.13
2019-02-27T15:25:43.163Z,6.63
2019-02-27T15:28:11.289Z,7.60
2019-02-27T15:30:40.074Z,7.50
2019-02-27T15:33:08.834Z,7.40
2019-02-27T15:35:37.609Z,7.60
2019-02-27T15:38:11.244Z,7.30
2019-02-27T15:40:38.346Z,6.57
2019-02-27T15:43:11.204Z,6.33
2019-02-27T15:45:47.221Z,6.27
2019-02-27T15:48:08.334Z,6.40
2019-02-27T15:50:37.198Z,7.33
2019-02-27T15:53:05.939Z,7.50
2019-02-27T15:55:35.355Z,6.93
2019-02-27T15:58:04.696Z,6.40
2019-02-27T16:00:33.543Z,7.43
2019-02-27T16:03:02.647Z,6.97
2019-02-27T16:05:31.827Z,6.60
2019-02-27T16:08:00.802Z,7.30
2019-02-27T16:10:29.673Z,8.23
2019-02-27T16:13:01.083Z,7.43
2019-02-27T16:15:29.012Z,8.77
2019-02-27T16:17:57.780Z,8.17
2019-02-27T16:20:26.712Z,8.20
2019-02-27T16:22:55.724Z,9.60
2019-02-27T16:25:24.666Z,10.10
2019-02-27T16:27:53.423Z,8.43
2019-02-27T16:30:24.336Z,9.43
2019-02-27T16:32:53.164Z,8.90
2019-02-27T16:35:22.012Z,9.30
2019-02-27T16:37:56.576Z,9.00
2019-02-27T16:40:21.630Z,11.63
2019-02-27T16:42:50.759Z,10.03
2019-02-27T16:45:21.901Z,10.20
2019-02-27T16:47:50.668Z,11.47
2019-02-27T16:50:24.736Z,9.70
2019-02-27T16:52:51.835Z,11.47
2019-02-27T16:55:21.745Z,9.33
2019-02-27T16:57:50.550Z,11.50
2019-02-27T17:00:21.745Z,12.87
2019-02-27T17:02:50.683Z,12.10
2019-02-27T17:05:19.627Z,12.73
2019-02-27T17:07:48.622Z,12.27
2019-02-27T17:10:19.844Z,11.63
2019-02-27T17:12:49.064Z,12.00
2019-02-27T17:15:17.995Z,12.03
2019-02-27T17:17:46.762Z,12.93
2019-02-27T17:20:17.068Z,12.20
2019-02-27T17:22:45.913Z,12.33
2019-02-27T17:25:14.939Z,12.80
2019-02-27T17:27:44.119Z,13.70
2019-02-27T17:30:18.600Z,14.17
2019-02-27T17:32:47.587Z,14.17
2019-02-27T17:35:16.457Z,12.90
2019-02-27T17:37:45.450Z,13.97
2019-02-27T17:40:14.613Z,13.80
2019-02-27T17:42:43.839Z,14.60
2019-02-27T17:45:14.658Z,13.70
2019-02-27T17:47:43.616Z,14.90
2019-02-27T17:50:12.879Z,17.90
2019-02-27T17:52:41.858Z,17.47
2019-02-27T17:55:10.753Z,18.40
2019-02-27T17:57:40.873Z,20.20
2019-02-27T18:00:16.015Z,19.80
2019-02-27T18:02:44.125Z,20.70
2019-02-27T18:05:13.075Z,18.73
2019-02-27T18:07:44.013Z,20.27
2019-02-27T18:10:13.097Z,18.10
2019-02-27T18:12:42.008Z,19.87
2019-02-27T18:15:20.212Z,18.60
2019-02-27T18:17:48.129Z,18.40
2019-02-27T18:20:17.143Z,21.57
2019-02-27T18:22:49.412Z,18.37
2019-02-27T18:25:18.129Z,18.30
2019-02-27T18:27:48.031Z,20.27
2019-02-27T18:30:18.876Z,18.73
2019-02-27T18:32:48.375Z,16.93
2019-02-27T18:35:18.556Z,19.00
2019-02-27T18:37:52.959Z,17.70
2019-02-27T18:40:19.184Z,13.80
2019-02-27T18:42:48.382Z,13.33
2019-02-27T18:45:17.385Z,15.97
2019-02-27T18:47:46.372Z,16.30
2019-02-27T18:50:15.530Z,12.97
2019-02-27T18:52:44.614Z,18.27
2019-02-27T18:55:13.725Z,19.37
2019-02-27T18:57:45.975Z,14.53
2019-02-27T19:00:17.818Z,18.00
2019-02-27T19:02:46.722Z,18.80
2019-02-27T19:05:16.093Z,16.10
2019-02-27T19:07:45.131Z,14.30
2019-02-27T19:10:15.058Z,13.07
2019-02-27T19:12:44.626Z,13.20
2019-02-27T19:15:16.090Z,14.73
2019-02-27T19:17:45.151Z,14.23
2019-02-27T19:20:15.554Z,17.13
2019-02-27T19:22:45.231Z,12.97
2019-02-27T19:25:14.205Z,12.73
2019-02-27T19:27:43.220Z,17.73
2019-02-27T19:30:14.625Z,13.23
2019-02-27T19:32:47.387Z,13.30
2019-02-27T19:35:21.165Z,15.57
2019-02-27T19:37:47.670Z,13.40
2019-02-27T19:40:18.277Z,13.97
2019-02-27T19:42:52.210Z,11.50
2019-02-27T19:45:21.235Z,12.07
2019-02-27T19:47:54.680Z,11.93
2019-02-27T19:50:21.419Z,11.47
2019-02-27T19:52:50.376Z,12.63
2019-02-27T19:55:19.444Z,13.93
2019-02-27T19:57:48.692Z,15.63
2019-02-27T20:00:19.358Z,13.97
2019-02-27T20:02:49.523Z,12.00
2019-02-27T20:05:19.807Z,10.43
2019-02-27T20:07:56.503Z,11.33
2019-02-27T20:10:30.169Z,13.43
2019-02-27T20:13:06.905Z,11.70
2019-02-27T20:15:36.899Z,10.27
2019-02-27T20:18:08.980Z,11.80
2019-02-27T20:20:41.202Z,9.53
2019-02-27T20:23:10.667Z,10.93
2019-02-27T20:25:43.138Z,10.57
2019-02-27T20:28:10.296Z,9.97
2019-02-27T20:30:39.160Z,9.33
2019-02-27T20:33:08.170Z,9.50
2019-02-27T20:35:37.125Z,10.23
2019-02-27T20:38:08.035Z,9.43
2019-02-27T20:40:37.973Z,9.03
2019-02-27T20:43:06.957Z,10.70
2019-02-27T20:45:36.020Z,10.60
2019-02-27T20:48:05.839Z,9.07
2019-02-27T20:50:37.142Z,9.63
2019-02-27T20:53:08.806Z,10.67
2019-02-27T20:55:37.755Z,9.83
2019-02-27T20:58:06.839Z,10.87
2019-02-27T21:00:37.313Z,10.77
2019-02-27T21:03:06.541Z,9.93
2019-02-27T21:05:40.839Z,9.70
2019-02-27T21:08:09.790Z,11.00
2019-02-27T21:10:38.783Z,9.20
2019-02-27T21:13:07.906Z,9.37
2019-02-27T21:15:38.254Z,8.77
2019-02-27T21:18:08.722Z,9.77
2019-02-27T21:20:42.166Z,9.50
2019-02-27T21:23:10.879Z,10.40
2019-02-27T21:25:40.025Z,8.93
2019-02-27T21:28:09.086Z,8.93
2019-02-27T21:30:37.965Z,8.53
2019-02-27T21:33:08.324Z,8.57
2019-02-27T21:35:40.986Z,9.30
2019-02-27T21:38:09.871Z,9.53
2019-02-27T21:40:39.566Z,8.90
2019-02-27T21:43:09.100Z,9.47
2019-02-27T21:45:38.417Z,8.70
2019-02-27T21:48:09.937Z,8.57
2019-02-27T21:50:40.585Z,8.47
2019-02-27T21:53:11.079Z,8.17
2019-02-27T21:55:41.168Z,9.40
2019-02-27T21:58:19.989Z,8.87
2019-02-27T22:00:41.278Z,10.00
2019-02-27T22:03:11.699Z,10.90
2019-02-27T22:05:43.106Z,9.70
2019-02-27T22:08:12.777Z,9.10
2019-02-27T22:10:41.689Z,10.10
2019-02-27T22:13:11.438Z,7.67
2019-02-27T22:15:40.347Z,8.37
2019-02-27T22:18:11.766Z,7.57
2019-02-27T22:20:39.939Z,9.53
2019-02-27T22:23:08.847Z,9.63
2019-02-27T22:25:37.980Z,10.10
2019-02-27T22:28:06.804Z,8.97
2019-02-27T22:30:35.824Z,8.77
2019-02-27T22:33:04.726Z,7.93
2019-02-27T22:35:37.128Z,8.33
2019-02-27T22:38:05.756Z,7.37
2019-02-27T22:40:38.028Z,5.97
2019-02-27T22:43:05.575Z,7.10
2019-02-27T22:45:36.100Z,6.87
2019-02-27T22:48:05.253Z,7.40
2019-02-27T22:50:34.099Z,7.87
2019-02-27T22:53:02.952Z,6.80
2019-02-27T22:55:31.820Z,7.57
2019-02-27T22:58:00.611Z,7.30
2019-02-27T23:01:00.821Z,8.47
2019-02-27T23:03:31.707Z,6.77
2019-02-27T23:06:00.568Z,8.07
2019-02-27T23:08:34.905Z,9.00
2019-02-27T23:11:03.949Z,7.63
2019-02-27T23:13:33.248Z,8.40
2019-02-27T23:16:02.901Z,8.20
2019-02-27T23:18:31.961Z,8.57
2019-02-27T23:21:00.773Z,7.70
2019-02-27T23:23:29.814Z,8.17
2019-02-27T23:25:58.619Z,9.80
2019-02-27T23:28:27.452Z,10.87
2019-02-27T23:30:56.277Z,9.37
2019-02-27T23:33:25.191Z,9.30
2019-02-27T23:35:55.495Z,9.03
2019-02-27T23:38:24.299Z,8.80
2019-02-27T23:40:53.106Z,8.67
2019-02-27T23:43:22.021Z,9.60
2019-02-27T23:45:50.771Z,9.67
2019-02-27T23:48:19.616Z,8.60
2019-02-27T23:50:48.512Z,9.40
2019-02-27T23:53:17.351Z,9.23
2019-02-27T23:55:46.129Z,9.43
2019-02-27T23:58:15.133Z,9.63
